sensor_id;sensor_type;location;lat;lon;timestamp;temperature;humidity
20985;DHT22;10651;47.552;7.606;2022-11-15T06:25:19;10.50;99.90
20985;DHT22;10651;47.552;7.606;2022-11-15T06:27:51;10.60;99.90
20985;DHT22;10651;47.552;7.606;2022-11-15T06:30:17;10.60;99.90
20985;DHT22;10651;47.552;7.606;2022-11-15T06:32:43;10.60;99.90
20985;DHT22;10651;47.552;7.606;2022-11-15T06:35:08;10.70;99.90
20985;DHT22;10651;47.552;7.606;2022-11-15T06:37:34;10.60;99.90
20985;DHT22;10651;47.552;7.606;2022-11-15T06:40:00;10.60;99.90
20985;DHT22;10651;47.552;7.606;2022-11-15T06:42:25;10.60;99.90
20985;DHT22;10651;47.552;7.606;2022-11-15T06:44:51;10.60;99.90
20985;DHT22;10651;47.552;7.606;2022-11-15T06:47:17;10.70;99.90
20985;DHT22;10651;47.552;7.606;2022-11-15T06:49:42;10.70;99.90
20985;DHT22;10651;47.552;7.606;2022-11-15T06:52:08;10.70;99.90
20985;DHT22;10651;47.552;7.606;2022-11-15T06:54:34;10.70;99.90
20985;DHT22;10651;47.552;7.606;2022-11-15T06:56:59;10.70;99.90
20985;DHT22;10651;47.552;7.606;2022-11-15T06:59:25;10.70;99.90
20985;DHT22;10651;47.552;7.606;2022-11-15T07:01:51;10.70;99.90
20985;DHT22;10651;47.552;7.606;2022-11-15T07:04:16;10.80;99.90
20985;DHT22;10651;47.552;7.606;2022-11-15T07:06:42;10.80;99.90
20985;DHT22;10651;47.552;7.606;2022-11-15T07:09:08;10.80;99.90
20985;DHT22;10651;47.552;7.606;2022-11-15T07:11:33;10.80;99.90
20985;DHT22;10651;47.552;7.606;2022-11-15T07:14:00;10.70;99.90
20985;DHT22;10651;47.552;7.606;2022-11-15T07:16:25;10.80;99.90
20985;DHT22;10651;47.552;7.606;2022-11-15T07:18:51;10.80;99.90
20985;DHT22;10651;47.552;7.606;2022-11-15T07:21:17;10.80;99.90
20985;DHT22;10651;47.552;7.606;2022-11-15T07:23:42;10.80;99.90
20985;DHT22;10651;47.552;7.606;2022-11-15T07:26:08;10.80;99.90
20985;DHT22;10651;47.552;7.606;2022-11-15T07:28:34;10.80;99.90
20985;DHT22;10651;47.552;7.606;2022-11-15T07:31:08;10.80;99.90
20985;DHT22;10651;47.552;7.606;2022-11-15T07:33:34;10.70;99.90
20985;DHT22;10651;47.552;7.606;2022-11-15T07:36:05;10.80;99.90
20985;DHT22;10651;47.552;7.606;2022-11-15T07:38:31;10.70;99.90
20985;DHT22;10651;47.552;7.606;2022-11-15T07:41:02;10.70;99.90
20985;DHT22;10651;47.552;7.606;2022-11-15T07:43:28;10.70;99.90
20985;DHT22;10651;47.552;7.606;2022-11-15T07:45:55;10.70;99.90
20985;DHT22;10651;47.552;7.606;2022-11-15T07:48:22;10.80;99.90
20985;DHT22;10651;47.552;7.606;2022-11-15T07:50:48;10.70;99.90
20985;DHT22;10651;47.552;7.606;2022-11-15T07:53:14;10.70;99.90
20985;DHT22;10651;47.552;7.606;2022-11-15T07:55:41;10.70;99.90
20985;DHT22;10651;47.552;7.606;2022-11-15T07:58:09;10.60;99.90
20985;DHT22;10651;47.552;7.606;2022-11-15T08:00:36;10.70;99.90
20985;DHT22;10651;47.552;7.606;2022-11-15T08:03:11;10.70;99.90
20985;DHT22;10651;47.552;7.606;2022-11-15T08:05:38;10.70;99.90
20985;DHT22;10651;47.552;7.606;2022-11-15T08:08:05;10.70;99.90
20985;DHT22;10651;47.552;7.606;2022-11-15T08:10:31;10.70;99.90
20985;DHT22;10651;47.552;7.606;2022-11-15T08:13:01;10.80;99.90
20985;DHT22;10651;47.552;7.606;2022-11-15T08:15:28;10.80;99.90
20985;DHT22;10651;47.552;7.606;2022-11-15T08:17:55;10.70;99.90
20985;DHT22;10651;47.552;7.606;2022-11-15T08:20:21;10.70;99.90
20985;DHT22;10651;47.552;7.606;2022-11-15T08:22:47;10.70;99.90
20985;DHT22;10651;47.552;7.606;2022-11-15T08:25:13;10.70;99.90
20985;DHT22;10651;47.552;7.606;2022-11-15T08:27:39;10.70;99.90
20985;DHT22;10651;47.552;7.606;2022-11-15T08:30:05;10.80;99.90
20985;DHT22;10651;47.552;7.606;2022-11-15T08:32:31;10.80;99.90
20985;DHT22;10651;47.552;7.606;2022-11-15T08:34:57;10.80;99.90
20985;DHT22;10651;47.552;7.606;2022-11-15T08:37:22;10.80;99.90
20985;DHT22;10651;47.552;7.606;2022-11-15T08:39:48;10.80;99.90
20985;DHT22;10651;47.552;7.606;2022-11-15T08:42:14;10.90;99.90
20985;DHT22;10651;47.552;7.606;2022-11-15T08:44:41;10.80;99.90
20985;DHT22;10651;47.552;7.606;2022-11-15T08:47:07;10.80;99.90
20985;DHT22;10651;47.552;7.606;2022-11-15T08:49:33;10.80;99.90
20985;DHT22;10651;47.552;7.606;2022-11-15T08:51:59;10.90;99.90
20985;DHT22;10651;47.552;7.606;2022-11-15T08:54:24;10.90;99.90
20985;DHT22;10651;47.552;7.606;2022-11-15T08:56:50;10.90;99.90
20985;DHT22;10651;47.552;7.606;2022-11-15T08:59:15;10.80;99.90
20985;DHT22;10651;47.552;7.606;2022-11-15T09:01:41;10.90;99.90
20985;DHT22;10651;47.552;7.606;2022-11-15T09:04:07;11.00;99.90
20985;DHT22;10651;47.552;7.606;2022-11-15T09:06:33;10.90;99.90
20985;DHT22;10651;47.552;7.606;2022-11-15T09:09:00;10.90;99.90
20985;DHT22;10651;47.552;7.606;2022-11-15T09:11:26;11.00;99.90
20985;DHT22;10651;47.552;7.606;2022-11-15T09:13:52;11.00;99.90
20985;DHT22;10651;47.552;7.606;2022-11-15T09:16:17;11.00;99.90
20985;DHT22;10651;47.552;7.606;2022-11-15T09:18:43;11.00;99.90
20985;DHT22;10651;47.552;7.606;2022-11-15T09:21:09;11.00;99.90
20985;DHT22;10651;47.552;7.606;2022-11-15T09:23:35;10.90;99.90
20985;DHT22;10651;47.552;7.606;2022-11-15T09:26:02;10.90;99.90
20985;DHT22;10651;47.552;7.606;2022-11-15T09:28:28;11.00;99.90
20985;DHT22;10651;47.552;7.606;2022-11-15T09:30:58;10.90;99.90
20985;DHT22;10651;47.552;7.606;2022-11-15T09:33:25;10.90;99.90
20985;DHT22;10651;47.552;7.606;2022-11-15T09:35:51;10.90;99.90
20985;DHT22;10651;47.552;7.606;2022-11-15T09:38:17;11.00;99.90
20985;DHT22;10651;47.552;7.606;2022-11-15T09:40:43;10.90;99.90
20985;DHT22;10651;47.552;7.606;2022-11-15T09:45:55;11.00;99.90
20985;DHT22;10651;47.552;7.606;2022-11-15T09:51:03;10.90;99.90
20985;DHT22;10651;47.552;7.606;2022-11-15T09:56:36;11.00;99.90
20985;DHT22;10651;47.552;7.606;2022-11-15T10:04:21;11.10;99.90
20985;DHT22;10651;47.552;7.606;2022-11-15T10:06:58;11.10;99.90
20985;DHT22;10651;47.552;7.606;2022-11-15T10:09:45;11.20;99.90
20985;DHT22;10651;47.552;7.606;2022-11-15T10:12:14;11.20;99.90
20985;DHT22;10651;47.552;7.606;2022-11-15T10:14:41;11.20;99.90
20985;DHT22;10651;47.552;7.606;2022-11-15T10:17:16;11.20;99.90
20985;DHT22;10651;47.552;7.606;2022-11-15T10:20:16;11.30;99.90
20985;DHT22;10651;47.552;7.606;2022-11-15T10:22:47;11.30;99.90
20985;DHT22;10651;47.552;7.606;2022-11-15T10:27:44;11.40;99.90
20985;DHT22;10651;47.552;7.606;2022-11-15T10:30:16;11.50;99.90
20985;DHT22;10651;47.552;7.606;2022-11-15T10:32:44;11.60;99.90
20985;DHT22;10651;47.552;7.606;2022-11-15T10:35:30;11.50;99.90
20985;DHT22;10651;47.552;7.606;2022-11-15T10:38:10;11.50;99.90
20985;DHT22;10651;47.552;7.606;2022-11-15T10:40:37;11.50;99.90
20985;DHT22;10651;47.552;7.606;2022-11-15T10:45:32;11.50;99.90
20985;DHT22;10651;47.552;7.606;2022-11-15T10:50:41;11.70;99.90
20985;DHT22;10651;47.552;7.606;2022-11-15T10:53:30;11.70;99.90
20985;DHT22;10651;47.552;7.606;2022-11-15T10:56:02;11.80;99.90
20985;DHT22;10651;47.552;7.606;2022-11-15T11:03:40;12.00;99.90
20985;DHT22;10651;47.552;7.606;2022-11-15T11:06:09;12.20;99.90
20985;DHT22;10651;47.552;7.606;2022-11-15T11:08:36;12.30;99.90
20985;DHT22;10651;47.552;7.606;2022-11-15T11:11:03;12.30;99.90
20985;DHT22;10651;47.552;7.606;2022-11-15T11:13:37;12.20;99.90
20985;DHT22;10651;47.552;7.606;2022-11-15T11:19:02;12.20;99.90
20985;DHT22;10651;47.552;7.606;2022-11-15T11:35:29;12.50;99.90
20985;DHT22;10651;47.552;7.606;2022-11-15T11:38:17;12.70;99.90
20985;DHT22;10651;47.552;7.606;2022-11-15T11:49:10;12.80;99.90
20985;DHT22;10651;47.552;7.606;2022-11-15T11:51:42;12.70;99.90
20985;DHT22;10651;47.552;7.606;2022-11-15T11:54:12;12.70;99.90
20985;DHT22;10651;47.552;7.606;2022-11-15T11:56:41;12.70;99.90
20985;DHT22;10651;47.552;7.606;2022-11-15T11:59:44;12.60;99.90
20985;DHT22;10651;47.552;7.606;2022-11-15T12:02:49;12.60;99.90
20985;DHT22;10651;47.552;7.606;2022-11-15T12:05:22;12.50;99.90
20985;DHT22;10651;47.552;7.606;2022-11-15T12:07:56;12.40;99.90
20985;DHT22;10651;47.552;7.606;2022-11-15T12:10:29;12.40;99.90
20985;DHT22;10651;47.552;7.606;2022-11-15T12:12:58;12.40;99.90
20985;DHT22;10651;47.552;7.606;2022-11-15T12:15:55;12.40;99.90
20985;DHT22;10651;47.552;7.606;2022-11-15T12:18:18;12.40;99.90
20985;DHT22;10651;47.552;7.606;2022-11-15T12:21:04;12.30;99.90
20985;DHT22;10651;47.552;7.606;2022-11-15T12:23:43;12.40;99.90
20985;DHT22;10651;47.552;7.606;2022-11-15T12:26:19;12.40;99.90
20985;DHT22;10651;47.552;7.606;2022-11-15T12:28:51;12.40;99.90
20985;DHT22;10651;47.552;7.606;2022-11-15T12:31:21;12.50;99.90
20985;DHT22;10651;47.552;7.606;2022-11-15T12:33:49;12.60;99.90
20985;DHT22;10651;47.552;7.606;2022-11-15T12:41:28;12.60;99.90
20985;DHT22;10651;47.552;7.606;2022-11-15T12:43:54;12.70;99.90
20985;DHT22;10651;47.552;7.606;2022-11-15T12:49:02;12.70;99.90
20985;DHT22;10651;47.552;7.606;2022-11-15T12:59:52;12.80;99.90
20985;DHT22;10651;47.552;7.606;2022-11-15T13:02:37;12.80;99.90
20985;DHT22;10651;47.552;7.606;2022-11-15T13:17:43;12.70;99.90
20985;DHT22;10651;47.552;7.606;2022-11-15T13:30:53;12.60;99.90
20985;DHT22;10651;47.552;7.606;2022-11-15T13:33:32;12.60;99.90
20985;DHT22;10651;47.552;7.606;2022-11-15T13:36:12;12.60;99.90
20985;DHT22;10651;47.552;7.606;2022-11-15T13:38:42;12.60;99.90
20985;DHT22;10651;47.552;7.606;2022-11-15T13:41:18;12.60;99.90
20985;DHT22;10651;47.552;7.606;2022-11-15T13:43:46;12.60;99.90
20985;DHT22;10651;47.552;7.606;2022-11-15T13:48:58;12.80;99.90
20985;DHT22;10651;47.552;7.606;2022-11-15T13:56:42;12.70;99.90
20985;DHT22;10651;47.552;7.606;2022-11-15T13:59:28;12.70;99.90
20985;DHT22;10651;47.552;7.606;2022-11-15T14:01:57;12.70;99.90
20985;DHT22;10651;47.552;7.606;2022-11-15T14:04:25;12.70;99.90
20985;DHT22;10651;47.552;7.606;2022-11-15T14:06:56;12.60;99.90
20985;DHT22;10651;47.552;7.606;2022-11-15T14:11:56;12.60;99.90
20985;DHT22;10651;47.552;7.606;2022-11-15T14:14:23;12.50;99.90
20985;DHT22;10651;47.552;7.606;2022-11-15T14:16:58;12.50;99.90
20985;DHT22;10651;47.552;7.606;2022-11-15T14:24:35;12.50;99.90
20985;DHT22;10651;47.552;7.606;2022-11-15T14:27:24;12.50;99.90
20985;DHT22;10651;47.552;7.606;2022-11-15T14:29:50;12.50;99.90
20985;DHT22;10651;47.552;7.606;2022-11-15T14:32:28;12.50;99.90
20985;DHT22;10651;47.552;7.606;2022-11-15T14:34:59;12.50;99.90
20985;DHT22;10651;47.552;7.606;2022-11-15T14:37:30;12.50;99.90
20985;DHT22;10651;47.552;7.606;2022-11-15T14:39:59;12.50;99.90
20985;DHT22;10651;47.552;7.606;2022-11-15T14:42:25;12.50;99.90
20985;DHT22;10651;47.552;7.606;2022-11-15T14:44:54;12.50;99.90
20985;DHT22;10651;47.552;7.606;2022-11-15T14:47:22;12.40;99.90
20985;DHT22;10651;47.552;7.606;2022-11-15T14:49:47;12.50;99.90
20985;DHT22;10651;47.552;7.606;2022-11-15T14:52:26;12.50;99.90
20985;DHT22;10651;47.552;7.606;2022-11-15T14:54:53;12.40;99.90
20985;DHT22;10651;47.552;7.606;2022-11-15T14:57:21;12.50;99.90
20985;DHT22;10651;47.552;7.606;2022-11-15T14:59:46;12.40;99.90
20985;DHT22;10651;47.552;7.606;2022-11-15T15:02:21;12.40;99.90
20985;DHT22;10651;47.552;7.606;2022-11-15T15:04:47;12.40;99.90
20985;DHT22;10651;47.552;7.606;2022-11-15T15:07:13;12.40;99.90
20985;DHT22;10651;47.552;7.606;2022-11-15T15:09:39;12.40;99.90
20985;DHT22;10651;47.552;7.606;2022-11-15T15:12:11;12.40;99.90
20985;DHT22;10651;47.552;7.606;2022-11-15T15:14:38;12.40;99.90
20985;DHT22;10651;47.552;7.606;2022-11-15T15:17:03;12.30;99.90
20985;DHT22;10651;47.552;7.606;2022-11-15T15:19:30;12.30;99.90
20985;DHT22;10651;47.552;7.606;2022-11-15T15:21:55;12.30;99.90
20985;DHT22;10651;47.552;7.606;2022-11-15T15:24:21;12.30;99.90
20985;DHT22;10651;47.552;7.606;2022-11-15T15:26:47;12.30;99.90
20985;DHT22;10651;47.552;7.606;2022-11-15T15:29:12;12.30;99.90
20985;DHT22;10651;47.552;7.606;2022-11-15T15:31:38;12.20;99.90
20985;DHT22;10651;47.552;7.606;2022-11-15T15:34:04;12.20;99.90
20985;DHT22;10651;47.552;7.606;2022-11-15T15:36:29;12.20;99.90
20985;DHT22;10651;47.552;7.606;2022-11-15T15:38:55;12.20;99.90
20985;DHT22;10651;47.552;7.606;2022-11-15T15:41:20;12.20;99.90
20985;DHT22;10651;47.552;7.606;2022-11-15T15:43:46;12.20;99.90
20985;DHT22;10651;47.552;7.606;2022-11-15T15:46:17;12.20;99.90
20985;DHT22;10651;47.552;7.606;2022-11-15T15:48:44;12.20;99.90
20985;DHT22;10651;47.552;7.606;2022-11-15T15:51:10;12.20;99.90
20985;DHT22;10651;47.552;7.606;2022-11-15T15:53:37;12.20;99.90
20985;DHT22;10651;47.552;7.606;2022-11-15T15:56:03;12.20;99.90
20985;DHT22;10651;47.552;7.606;2022-11-15T15:58:29;12.20;99.90
20985;DHT22;10651;47.552;7.606;2022-11-15T16:00:54;12.20;99.90
20985;DHT22;10651;47.552;7.606;2022-11-15T16:03:20;12.20;99.90
20985;DHT22;10651;47.552;7.606;2022-11-15T16:05:46;12.10;99.90
20985;DHT22;10651;47.552;7.606;2022-11-15T16:08:21;12.10;99.90
20985;DHT22;10651;47.552;7.606;2022-11-15T16:10:47;12.10;99.90
20985;DHT22;10651;47.552;7.606;2022-11-15T16:13:13;12.00;99.90
20985;DHT22;10651;47.552;7.606;2022-11-15T16:15:39;12.10;99.90
20985;DHT22;10651;47.552;7.606;2022-11-15T16:18:05;12.00;99.90
20985;DHT22;10651;47.552;7.606;2022-11-15T16:20:44;12.10;99.90
20985;DHT22;10651;47.552;7.606;2022-11-15T16:23:13;12.10;99.90
20985;DHT22;10651;47.552;7.606;2022-11-15T16:25:53;12.10;99.90
20985;DHT22;10651;47.552;7.606;2022-11-15T16:28:29;12.10;99.90
20985;DHT22;10651;47.552;7.606;2022-11-15T16:31:03;12.10;99.90
20985;DHT22;10651;47.552;7.606;2022-11-15T16:33:29;12.10;99.90
20985;DHT22;10651;47.552;7.606;2022-11-15T16:35:55;12.20;99.90
20985;DHT22;10651;47.552;7.606;2022-11-15T16:38:21;12.10;99.90
20985;DHT22;10651;47.552;7.606;2022-11-15T16:40:46;12.20;99.90
20985;DHT22;10651;47.552;7.606;2022-11-15T16:43:12;12.30;99.90
20985;DHT22;10651;47.552;7.606;2022-11-15T16:45:38;12.20;99.90
20985;DHT22;10651;47.552;7.606;2022-11-15T16:48:04;12.20;99.90
20985;DHT22;10651;47.552;7.606;2022-11-15T16:50:33;12.20;99.90
20985;DHT22;10651;47.552;7.606;2022-11-15T16:53:04;12.10;99.90
20985;DHT22;10651;47.552;7.606;2022-11-15T16:55:29;12.10;99.90
20985;DHT22;10651;47.552;7.606;2022-11-15T16:57:56;12.00;99.90
20985;DHT22;10651;47.552;7.606;2022-11-15T17:00:26;12.10;99.90
20985;DHT22;10651;47.552;7.606;2022-11-15T17:02:52;12.40;99.90
20985;DHT22;10651;47.552;7.606;2022-11-15T17:05:20;12.60;99.90
20985;DHT22;10651;47.552;7.606;2022-11-15T17:07:48;12.60;99.90
20985;DHT22;10651;47.552;7.606;2022-11-15T17:10:15;12.70;99.90
20985;DHT22;10651;47.552;7.606;2022-11-15T17:12:41;12.60;99.90
20985;DHT22;10651;47.552;7.606;2022-11-15T17:15:07;12.70;99.90
20985;DHT22;10651;47.552;7.606;2022-11-15T17:17:33;12.80;99.90
20985;DHT22;10651;47.552;7.606;2022-11-15T17:19:58;12.70;99.90
20985;DHT22;10651;47.552;7.606;2022-11-15T17:22:24;12.80;99.90
20985;DHT22;10651;47.552;7.606;2022-11-15T17:24:50;12.70;99.90
20985;DHT22;10651;47.552;7.606;2022-11-15T17:27:15;12.70;99.90
20985;DHT22;10651;47.552;7.606;2022-11-15T17:29:42;12.80;99.90
20985;DHT22;10651;47.552;7.606;2022-11-15T17:32:08;12.80;99.90
20985;DHT22;10651;47.552;7.606;2022-11-15T17:34:45;12.70;99.90
20985;DHT22;10651;47.552;7.606;2022-11-15T17:37:11;12.90;99.90
20985;DHT22;10651;47.552;7.606;2022-11-15T17:39:36;13.00;99.90
20985;DHT22;10651;47.552;7.606;2022-11-15T17:42:02;12.80;99.90
20985;DHT22;10651;47.552;7.606;2022-11-15T17:44:28;12.70;99.90
20985;DHT22;10651;47.552;7.606;2022-11-15T17:46:54;12.60;99.90
20985;DHT22;10651;47.552;7.606;2022-11-15T17:49:19;12.70;99.90
20985;DHT22;10651;47.552;7.606;2022-11-15T17:51:45;12.80;99.90
20985;DHT22;10651;47.552;7.606;2022-11-15T17:54:11;12.70;99.90
20985;DHT22;10651;47.552;7.606;2022-11-15T17:56:38;12.60;99.90
20985;DHT22;10651;47.552;7.606;2022-11-15T17:59:05;12.60;99.90
20985;DHT22;10651;47.552;7.606;2022-11-15T18:01:32;12.70;99.90
20985;DHT22;10651;47.552;7.606;2022-11-15T18:03:59;12.80;99.90
20985;DHT22;10651;47.552;7.606;2022-11-15T18:06:28;12.80;99.90
20985;DHT22;10651;47.552;7.606;2022-11-15T18:08:55;12.70;99.90
20985;DHT22;10651;47.552;7.606;2022-11-15T18:11:23;12.70;99.90
20985;DHT22;10651;47.552;7.606;2022-11-15T18:13:55;12.70;99.90
20985;DHT22;10651;47.552;7.606;2022-11-15T18:16:23;12.60;99.90
20985;DHT22;10651;47.552;7.606;2022-11-15T18:18:51;12.70;99.90
20985;DHT22;10651;47.552;7.606;2022-11-15T18:21:18;12.70;99.90
20985;DHT22;10651;47.552;7.606;2022-11-15T18:23:47;12.70;99.90
20985;DHT22;10651;47.552;7.606;2022-11-15T18:26:15;12.80;99.90
20985;DHT22;10651;47.552;7.606;2022-11-15T18:28:48;12.80;99.90
20985;DHT22;10651;47.552;7.606;2022-11-15T18:31:22;12.70;99.90
20985;DHT22;10651;47.552;7.606;2022-11-15T18:33:48;12.50;99.90
20985;DHT22;10651;47.552;7.606;2022-11-15T18:36:25;12.50;99.90
20985;DHT22;10651;47.552;7.606;2022-11-15T18:38:55;12.40;99.90
20985;DHT22;10651;47.552;7.606;2022-11-15T18:41:21;12.30;99.90
20985;DHT22;10651;47.552;7.606;2022-11-15T18:43:50;12.20;99.90
20985;DHT22;10651;47.552;7.606;2022-11-15T18:46:21;12.30;99.90
20985;DHT22;10651;47.552;7.606;2022-11-15T18:48:48;12.20;99.90
20985;DHT22;10651;47.552;7.606;2022-11-15T18:51:22;12.30;99.90
20985;DHT22;10651;47.552;7.606;2022-11-15T18:53:52;12.30;99.90
20985;DHT22;10651;47.552;7.606;2022-11-15T18:56:19;12.20;99.90
20985;DHT22;10651;47.552;7.606;2022-11-15T18:58:48;12.20;99.90
20985;DHT22;10651;47.552;7.606;2022-11-15T19:01:19;12.30;99.90
20985;DHT22;10651;47.552;7.606;2022-11-15T19:03:52;12.30;99.90
20985;DHT22;10651;47.552;7.606;2022-11-15T19:08:46;12.20;99.90
20985;DHT22;10651;47.552;7.606;2022-11-15T19:11:32;12.20;99.90
20985;DHT22;10651;47.552;7.606;2022-11-15T19:16:32;12.20;99.90
20985;DHT22;10651;47.552;7.606;2022-11-15T19:19:00;12.20;99.90
20985;DHT22;10651;47.552;7.606;2022-11-15T19:21:27;12.20;99.90
20985;DHT22;10651;47.552;7.606;2022-11-15T19:23:53;12.10;99.90
20985;DHT22;10651;47.552;7.606;2022-11-15T19:26:20;12.10;99.90
20985;DHT22;10651;47.552;7.606;2022-11-15T19:28:51;12.10;99.90
20985;DHT22;10651;47.552;7.606;2022-11-15T19:31:17;12.10;99.90
20985;DHT22;10651;47.552;7.606;2022-11-15T19:33:44;12.10;99.90
20985;DHT22;10651;47.552;7.606;2022-11-15T19:36:13;12.00;99.90
20985;DHT22;10651;47.552;7.606;2022-11-15T19:38:40;12.00;99.90
20985;DHT22;10651;47.552;7.606;2022-11-15T19:41:09;12.00;99.90
20985;DHT22;10651;47.552;7.606;2022-11-15T19:43:35;12.00;99.90
20985;DHT22;10651;47.552;7.606;2022-11-15T19:46:02;12.00;99.90
20985;DHT22;10651;47.552;7.606;2022-11-15T19:48:30;11.90;99.90
20985;DHT22;10651;47.552;7.606;2022-11-15T19:51:03;11.90;99.90
20985;DHT22;10651;47.552;7.606;2022-11-15T19:53:30;11.90;99.90
20985;DHT22;10651;47.552;7.606;2022-11-15T19:56:05;11.80;99.90
20985;DHT22;10651;47.552;7.606;2022-11-15T19:58:31;11.80;99.90
20985;DHT22;10651;47.552;7.606;2022-11-15T20:01:02;11.80;99.90
20985;DHT22;10651;47.552;7.606;2022-11-15T20:03:29;11.80;99.90
20985;DHT22;10651;47.552;7.606;2022-11-15T20:06:04;11.80;99.90
20985;DHT22;10651;47.552;7.606;2022-11-15T20:08:30;11.80;99.90
20985;DHT22;10651;47.552;7.606;2022-11-15T20:10:56;11.70;99.90
20985;DHT22;10651;47.552;7.606;2022-11-15T20:13:22;11.70;99.90
20985;DHT22;10651;47.552;7.606;2022-11-15T20:15:48;11.70;99.90
20985;DHT22;10651;47.552;7.606;2022-11-15T20:18:14;11.70;99.90
20985;DHT22;10651;47.552;7.606;2022-11-15T20:20:39;11.70;99.90
20985;DHT22;10651;47.552;7.606;2022-11-15T20:23:05;11.70;99.90
20985;DHT22;10651;47.552;7.606;2022-11-15T20:25:31;11.60;99.90
20985;DHT22;10651;47.552;7.606;2022-11-15T20:27:56;11.70;99.90
20985;DHT22;10651;47.552;7.606;2022-11-15T20:30:22;11.70;99.90
20985;DHT22;10651;47.552;7.606;2022-11-15T20:32:48;11.70;99.90
20985;DHT22;10651;47.552;7.606;2022-11-15T20:35:13;11.70;99.90
20985;DHT22;10651;47.552;7.606;2022-11-15T20:37:39;11.60;99.90
20985;DHT22;10651;47.552;7.606;2022-11-15T20:40:05;11.70;99.90
20985;DHT22;10651;47.552;7.606;2022-11-15T20:42:31;11.60;99.90
20985;DHT22;10651;47.552;7.606;2022-11-15T20:44:57;11.60;99.90
20985;DHT22;10651;47.552;7.606;2022-11-15T20:47:22;11.60;99.90
20985;DHT22;10651;47.552;7.606;2022-11-15T20:49:48;11.50;99.90
20985;DHT22;10651;47.552;7.606;2022-11-15T20:52:14;11.50;99.90
20985;DHT22;10651;47.552;7.606;2022-11-15T20:54:39;11.50;99.90
20985;DHT22;10651;47.552;7.606;2022-11-15T20:57:05;11.50;99.90
20985;DHT22;10651;47.552;7.606;2022-11-15T20:59:30;11.50;99.90
20985;DHT22;10651;47.552;7.606;2022-11-15T21:01:56;11.40;99.90
20985;DHT22;10651;47.552;7.606;2022-11-15T21:04:22;11.40;99.90
20985;DHT22;10651;47.552;7.606;2022-11-15T21:06:47;11.40;99.90
20985;DHT22;10651;47.552;7.606;2022-11-15T21:09:13;11.40;99.90
20985;DHT22;10651;47.552;7.606;2022-11-15T21:11:57;11.30;99.90
20985;DHT22;10651;47.552;7.606;2022-11-15T21:14:39;11.30;99.90
20985;DHT22;10651;47.552;7.606;2022-11-15T21:17:05;11.40;99.90
20985;DHT22;10651;47.552;7.606;2022-11-15T21:19:31;11.40;99.90
20985;DHT22;10651;47.552;7.606;2022-11-15T21:21:57;11.40;99.90
20985;DHT22;10651;47.552;7.606;2022-11-15T21:24:23;11.30;99.90
20985;DHT22;10651;47.552;7.606;2022-11-15T21:26:50;11.30;99.90
20985;DHT22;10651;47.552;7.606;2022-11-15T21:29:16;11.20;99.90
20985;DHT22;10651;47.552;7.606;2022-11-15T21:31:46;11.20;99.90
20985;DHT22;10651;47.552;7.606;2022-11-15T21:34:12;11.10;99.90
20985;DHT22;10651;47.552;7.606;2022-11-15T21:36:38;11.10;99.90
20985;DHT22;10651;47.552;7.606;2022-11-15T21:39:03;11.20;99.90
20985;DHT22;10651;47.552;7.606;2022-11-15T21:41:29;11.10;99.90
20985;DHT22;10651;47.552;7.606;2022-11-15T21:43:59;11.10;99.90
20985;DHT22;10651;47.552;7.606;2022-11-15T21:46:25;11.10;99.90
20985;DHT22;10651;47.552;7.606;2022-11-15T21:48:51;11.10;99.90
20985;DHT22;10651;47.552;7.606;2022-11-15T21:51:17;11.10;99.90
20985;DHT22;10651;47.552;7.606;2022-11-15T21:53:42;11.10;99.90
20985;DHT22;10651;47.552;7.606;2022-11-15T21:56:08;11.10;99.90
20985;DHT22;10651;47.552;7.606;2022-11-15T21:58:36;11.10;99.90
20985;DHT22;10651;47.552;7.606;2022-11-15T22:01:03;11.10;99.90
20985;DHT22;10651;47.552;7.606;2022-11-15T22:03:47;11.10;99.90
20985;DHT22;10651;47.552;7.606;2022-11-15T22:06:13;11.10;99.90
20985;DHT22;10651;47.552;7.606;2022-11-15T22:08:39;11.10;99.90
20985;DHT22;10651;47.552;7.606;2022-11-15T22:11:04;11.00;99.90
20985;DHT22;10651;47.552;7.606;2022-11-15T22:13:30;11.00;99.90
20985;DHT22;10651;47.552;7.606;2022-11-15T22:15:56;11.00;99.90
20985;DHT22;10651;47.552;7.606;2022-11-15T22:18:23;11.10;99.90
20985;DHT22;10651;47.552;7.606;2022-11-15T22:21:03;11.00;99.90
20985;DHT22;10651;47.552;7.606;2022-11-15T22:23:31;10.90;99.90
20985;DHT22;10651;47.552;7.606;2022-11-15T22:25:58;11.00;99.90
20985;DHT22;10651;47.552;7.606;2022-11-15T22:28:24;11.00;99.90
20985;DHT22;10651;47.552;7.606;2022-11-15T22:30:52;11.00;99.90
20985;DHT22;10651;47.552;7.606;2022-11-15T22:33:21;11.00;99.90
20985;DHT22;10651;47.552;7.606;2022-11-15T22:35:47;11.00;99.90
20985;DHT22;10651;47.552;7.606;2022-11-15T22:38:13;11.00;99.90
20985;DHT22;10651;47.552;7.606;2022-11-15T22:40:39;11.00;99.90
20985;DHT22;10651;47.552;7.606;2022-11-15T22:43:05;11.00;99.90
20985;DHT22;10651;47.552;7.606;2022-11-15T22:45:32;11.00;99.90
20985;DHT22;10651;47.552;7.606;2022-11-15T22:47:58;11.00;99.90
20985;DHT22;10651;47.552;7.606;2022-11-15T22:50:24;11.00;99.90
20985;DHT22;10651;47.552;7.606;2022-11-15T22:52:50;10.90;99.90
20985;DHT22;10651;47.552;7.606;2022-11-15T22:55:16;11.00;99.90
20985;DHT22;10651;47.552;7.606;2022-11-15T22:57:42;11.00;99.90
20985;DHT22;10651;47.552;7.606;2022-11-15T23:00:12;11.00;99.90
20985;DHT22;10651;47.552;7.606;2022-11-15T23:02:37;11.00;99.90
20985;DHT22;10651;47.552;7.606;2022-11-15T23:05:04;11.00;99.90
20985;DHT22;10651;47.552;7.606;2022-11-15T23:07:30;11.00;99.90
20985;DHT22;10651;47.552;7.606;2022-11-15T23:09:56;11.00;99.90
